createdAt,value
2023-04-01T00:01:37.057Z,3.28
2023-04-01T00:04:06.724Z,2.42
2023-04-01T00:06:37.592Z,2.00
2023-04-01T00:09:07.025Z,1.95
2023-04-01T00:11:36.942Z,2.38
2023-04-01T00:14:06.411Z,2.33
2023-04-01T00:16:36.332Z,2.80
2023-04-01T00:19:06.442Z,2.50
2023-04-01T00:21:38.026Z,2.10
2023-04-01T00:24:09.159Z,2.20
2023-04-01T00:26:38.711Z,1.85
2023-04-01T00:29:08.195Z,1.63
2023-04-01T00:31:37.721Z,2.20
2023-04-01T00:34:07.174Z,3.40
2023-04-01T00:36:38.013Z,2.78
2023-04-01T00:39:07.507Z,2.60
2023-04-01T00:41:36.776Z,2.38
2023-04-01T00:44:22.367Z,2.95
2023-04-01T00:50:13.111Z,3.38
2023-04-01T00:52:42.356Z,9.70
2023-04-01T00:55:16.157Z,10.55
2023-04-01T00:57:47.950Z,7.32
2023-04-01T01:00:19.418Z,6.03
2023-04-01T01:02:50.142Z,4.85
2023-04-01T01:05:26.314Z,5.00
2023-04-01T01:08:05.524Z,6.65
2023-04-01T01:10:37.513Z,5.10
2023-04-01T01:13:16.674Z,3.13
2023-04-01T01:15:52.471Z,7.03
2023-04-01T01:18:33.336Z,5.95
2023-04-01T01:21:37.580Z,6.03
2023-04-01T01:25:05.420Z,5.38
2023-04-01T01:27:37.163Z,5.03
2023-04-01T01:30:38.361Z,4.70
2023-04-01T01:33:38.339Z,3.50
2023-04-01T01:36:14.785Z,4.00
2023-04-01T01:38:44.797Z,3.78
2023-04-01T01:41:17.288Z,3.50
2023-04-01T01:43:50.450Z,2.75
2023-04-01T01:46:23.925Z,2.90
2023-04-01T01:48:55.264Z,2.50
2023-04-01T01:51:28.137Z,3.13
2023-04-01T01:56:31.328Z,2.47
2023-04-01T01:59:07.714Z,2.50
2023-04-01T02:01:44.061Z,6.40
2023-04-01T02:04:16.255Z,3.70
2023-04-01T02:06:55.776Z,21.30
2023-04-01T02:09:25.606Z,7.85
2023-04-01T02:11:59.790Z,3.28
2023-04-01T02:14:34.161Z,3.80
2023-04-01T02:17:08.410Z,4.63
2023-04-01T02:19:43.731Z,3.63
2023-04-01T02:22:20.921Z,2.88
2023-04-01T02:24:52.896Z,3.38
2023-04-01T02:27:23.279Z,10.33
2023-04-01T02:29:53.342Z,4.57
2023-04-01T02:32:23.779Z,3.13
2023-04-01T02:34:53.893Z,3.90
2023-04-01T02:37:24.907Z,4.32
2023-04-01T02:39:54.227Z,4.05
2023-04-01T02:42:23.714Z,2.30
2023-04-01T02:44:53.209Z,10.48
2023-04-01T02:47:22.590Z,4.35
2023-04-01T02:49:51.929Z,3.33
2023-04-01T02:52:21.305Z,3.00
2023-04-01T02:54:52.029Z,3.10
2023-04-01T02:57:21.532Z,2.63
2023-04-01T02:59:51.114Z,3.42
2023-04-01T03:02:21.090Z,2.67
2023-04-01T03:04:50.543Z,2.53
2023-04-01T03:07:19.743Z,3.00
2023-04-01T03:09:50.619Z,6.75
2023-04-01T03:12:19.876Z,7.47
2023-04-01T03:14:49.216Z,4.97
2023-04-01T03:17:18.498Z,6.63
2023-04-01T03:19:47.874Z,5.07
2023-04-01T03:22:17.418Z,3.40
2023-04-01T03:24:46.796Z,4.30
2023-04-01T03:27:17.905Z,5.25
2023-04-01T03:29:47.251Z,7.22
2023-04-01T03:32:16.543Z,4.28
2023-04-01T03:34:45.988Z,4.70
2023-04-01T03:37:15.685Z,3.40
2023-04-01T03:39:45.013Z,2.92
2023-04-01T03:42:15.867Z,5.90
2023-04-01T03:44:45.716Z,2.72
2023-04-01T03:47:15.007Z,3.75
2023-04-01T03:51:12.378Z,3.10
2023-04-01T03:53:41.712Z,2.30
2023-04-01T03:56:12.211Z,2.28
2023-04-01T03:58:41.685Z,2.50
2023-04-01T04:01:19.996Z,2.70
2023-04-01T04:03:50.360Z,6.50
2023-04-01T04:06:22.474Z,5.80
2023-04-01T04:08:52.133Z,5.30
2023-04-01T04:11:22.415Z,3.00
2023-04-01T04:13:53.393Z,3.60
2023-04-01T04:16:22.736Z,9.65
2023-04-01T04:18:52.233Z,12.27
2023-04-01T04:21:23.069Z,10.27
2023-04-01T04:23:53.138Z,5.57
2023-04-01T04:26:22.918Z,4.72
2023-04-01T04:28:52.227Z,6.40
2023-04-01T04:31:23.124Z,6.10
2023-04-01T04:33:52.883Z,10.85
2023-04-01T04:36:24.683Z,5.50
2023-04-01T04:38:54.298Z,6.38
2023-04-01T04:41:24.058Z,20.48
2023-04-01T04:43:55.256Z,18.42
2023-04-01T04:46:25.391Z,19.13
2023-04-01T04:48:54.770Z,12.65
2023-04-01T04:51:26.111Z,7.68
2023-04-01T04:53:55.697Z,19.80
2023-04-01T04:56:27.063Z,13.98
2023-04-01T04:58:56.645Z,8.82
2023-04-01T05:01:26.222Z,13.00
2023-04-01T05:03:55.584Z,20.88
2023-04-01T05:06:26.797Z,16.40
2023-04-01T05:08:56.252Z,12.75
2023-04-01T05:11:27.154Z,8.70
2023-04-01T05:13:56.596Z,15.65
2023-04-01T05:16:25.862Z,15.50
2023-04-01T05:18:55.261Z,24.02
2023-04-01T05:21:26.641Z,26.17
2023-04-01T05:23:56.290Z,15.20
2023-04-01T05:26:25.762Z,17.33
2023-04-01T05:28:55.136Z,18.60
2023-04-01T05:31:25.297Z,25.42
2023-04-01T05:33:55.286Z,12.20
2023-04-01T05:36:26.019Z,15.48
2023-04-01T05:38:58.831Z,28.00
2023-04-01T05:43:57.695Z,23.85
2023-04-01T05:46:27.121Z,22.60
2023-04-01T05:48:56.431Z,22.17
2023-04-01T05:51:27.404Z,20.38
2023-04-01T05:53:59.502Z,10.35
2023-04-01T05:56:29.833Z,15.05
2023-04-01T05:58:59.132Z,11.68
2023-04-01T06:01:28.501Z,14.23
2023-04-01T06:03:57.893Z,12.13
2023-04-01T06:06:31.017Z,10.25
2023-04-01T06:09:09.410Z,18.77
2023-04-01T06:11:51.599Z,3.05
2023-04-01T06:14:36.516Z,4.87
2023-04-01T06:17:22.671Z,12.23
2023-04-01T06:19:59.989Z,8.93
2023-04-01T06:23:12.318Z,13.05
2023-04-01T06:26:03.082Z,4.50
2023-04-01T06:29:11.477Z,4.90
2023-04-01T06:32:13.836Z,6.90
2023-04-01T06:35:20.987Z,3.45
2023-04-01T06:38:45.240Z,5.85
2023-04-01T06:41:50.973Z,27.15
2023-04-01T06:44:30.197Z,14.90
2023-04-01T06:47:04.952Z,9.90
2023-04-01T06:51:24.187Z,5.78
2023-04-01T06:56:31.843Z,3.92
2023-04-01T07:01:38.437Z,4.25
2023-04-01T07:04:14.368Z,3.58
2023-04-01T07:06:51.372Z,1.83
2023-04-01T07:09:25.586Z,3.58
2023-04-01T07:12:02.343Z,2.45
2023-04-01T07:14:36.691Z,2.20
2023-04-01T07:17:14.505Z,2.42
2023-04-01T07:19:49.806Z,2.78
2023-04-01T07:22:32.390Z,2.35
2023-04-01T07:25:13.959Z,2.42
2023-04-01T07:27:45.163Z,1.35
2023-04-01T07:30:19.515Z,1.70
2023-04-01T07:32:56.648Z,1.42
2023-04-01T07:35:33.341Z,2.45
2023-04-01T07:38:19.598Z,3.95
2023-04-01T07:40:57.702Z,1.20
2023-04-01T07:43:52.310Z,2.17
2023-04-01T07:46:37.682Z,0.95
2023-04-01T07:49:17.192Z,1.30
2023-04-01T07:51:55.174Z,20.65
2023-04-01T07:54:35.345Z,4.32
2023-04-01T07:57:13.217Z,4.18
2023-04-01T07:59:56.503Z,1.40
2023-04-01T08:02:42.347Z,1.00
2023-04-01T08:05:25.213Z,1.83
2023-04-01T08:08:07.428Z,1.40
2023-04-01T08:10:49.498Z,26.02
2023-04-01T08:13:34.265Z,3.47
2023-04-01T08:16:15.931Z,0.75
2023-04-01T08:18:57.146Z,11.00
2023-04-01T08:21:31.111Z,1.90
2023-04-01T08:24:06.790Z,1.00
2023-04-01T08:26:46.315Z,0.73
2023-04-01T08:29:22.070Z,0.95
2023-04-01T08:31:59.367Z,0.95
2023-04-01T08:34:35.034Z,4.90
2023-04-01T08:37:09.928Z,1.63
2023-04-01T08:39:43.699Z,2.40
2023-04-01T08:42:53.452Z,4.97
2023-04-01T08:45:44.124Z,2.15
2023-04-01T08:48:47.886Z,3.50
2023-04-01T08:51:49.375Z,2.67
2023-04-01T08:54:47.799Z,2.80
2023-04-01T08:57:27.539Z,6.90
2023-04-01T09:00:18.647Z,6.25
2023-04-01T09:03:27.446Z,2.88
2023-04-01T09:06:32.248Z,4.43
2023-04-01T09:09:46.382Z,1.35
2023-04-01T09:13:13.099Z,1.83
2023-04-01T09:16:37.715Z,1.50
2023-04-01T09:19:30.651Z,1.55
2023-04-01T09:22:27.868Z,3.10
2023-04-01T09:25:41.517Z,5.18
2023-04-01T09:28:17.636Z,3.80
2023-04-01T09:31:26.338Z,4.53
2023-04-01T09:34:28.883Z,7.75
2023-04-01T09:37:22.738Z,6.72
2023-04-01T09:40:14.593Z,1.67
2023-04-01T09:43:04.936Z,3.03
2023-04-01T09:45:55.180Z,1.50
2023-04-01T09:51:29.928Z,1.42
2023-04-01T09:54:20.816Z,1.83
2023-04-01T09:57:42.659Z,1.27
2023-04-01T10:00:42.655Z,1.45
2023-04-01T10:04:10.632Z,4.03
2023-04-01T10:07:38.394Z,3.63
2023-04-01T10:11:05.834Z,2.17
2023-04-01T10:14:28.577Z,1.70
2023-04-01T10:18:06.302Z,1.40
2023-04-01T10:21:01.437Z,1.50
2023-04-01T10:24:03.295Z,1.42
2023-04-01T10:27:08.964Z,1.50
2023-04-01T10:30:41.920Z,1.75
2023-04-01T10:34:02.961Z,1.10
2023-04-01T10:36:52.389Z,1.25
2023-04-01T10:40:19.261Z,1.23
2023-04-01T10:43:52.325Z,1.15
2023-04-01T10:47:05.276Z,1.17
2023-04-01T10:50:38.677Z,2.03
2023-04-01T10:53:42.235Z,1.10
2023-04-01T10:56:43.231Z,0.90
2023-04-01T11:00:00.000Z,1.08
2023-04-01T11:03:30.091Z,0.60
2023-04-01T11:06:42.975Z,0.57
2023-04-01T11:10:12.272Z,1.55
2023-04-01T11:13:27.769Z,1.25
2023-04-01T11:16:47.721Z,1.15
2023-04-01T11:20:09.648Z,0.60
2023-04-01T11:23:13.066Z,0.98
2023-04-01T11:26:12.059Z,1.35
2023-04-01T11:29:04.325Z,0.98
2023-04-01T11:31:48.428Z,1.43
2023-04-01T11:35:04.535Z,1.02
2023-04-01T11:37:47.049Z,1.17
2023-04-01T11:40:30.349Z,1.42
2023-04-01T11:43:07.878Z,2.10
2023-04-01T11:45:44.245Z,1.48
2023-04-01T11:48:40.105Z,1.33
2023-04-01T11:51:55.288Z,2.00
2023-04-01T11:54:47.078Z,2.60
2023-04-01T11:57:54.418Z,2.38
2023-04-01T12:00:53.198Z,2.85
2023-04-01T12:03:59.479Z,1.83
2023-04-01T12:06:38.503Z,1.13
2023-04-01T12:09:17.887Z,1.25
2023-04-01T12:12:00.445Z,1.70
2023-04-01T12:17:16.838Z,1.35
2023-04-01T12:19:56.252Z,0.90
2023-04-01T12:22:50.182Z,1.30
2023-04-01T12:25:56.374Z,1.98
2023-04-01T12:28:32.785Z,2.30
2023-04-01T12:31:21.422Z,1.45
2023-04-01T12:34:40.640Z,1.30
2023-04-01T12:37:19.390Z,3.10
2023-04-01T12:40:12.155Z,1.83
2023-04-01T12:45:33.270Z,0.95
2023-04-01T12:51:39.425Z,1.30
2023-04-01T12:54:52.511Z,1.52
2023-04-01T12:57:48.832Z,1.75
2023-04-01T13:00:49.583Z,2.08
2023-04-01T13:03:49.162Z,2.17
2023-04-01T13:06:47.575Z,1.02
2023-04-01T13:09:31.919Z,1.48
2023-04-01T13:12:38.755Z,1.55
2023-04-01T13:15:27.972Z,2.42
2023-04-01T13:18:15.581Z,3.88
2023-04-01T13:20:55.784Z,3.00
2023-04-01T13:23:44.247Z,2.20
2023-04-01T13:26:27.673Z,0.68
2023-04-01T13:29:09.659Z,0.63
2023-04-01T13:31:59.832Z,0.50
2023-04-01T13:34:48.750Z,0.93
2023-04-01T13:37:36.412Z,0.70
2023-04-01T13:40:59.634Z,0.30
2023-04-01T13:43:38.616Z,0.80
2023-04-01T13:46:42.551Z,0.68
2023-04-01T13:49:41.534Z,0.55
2023-04-01T13:52:56.179Z,1.40
2023-04-01T13:55:51.994Z,0.47
2023-04-01T13:58:41.139Z,2.78
2023-04-01T14:01:18.531Z,2.35
2023-04-01T14:04:38.539Z,4.43
2023-04-01T14:07:31.953Z,5.22
2023-04-01T14:10:19.521Z,3.30
2023-04-01T14:12:59.807Z,3.10
2023-04-01T14:15:59.828Z,2.75
2023-04-01T14:18:49.013Z,2.78
2023-04-01T14:21:33.536Z,1.55
2023-04-01T14:24:47.085Z,2.42
2023-04-01T14:27:41.153Z,2.53
2023-04-01T14:30:42.564Z,1.80
2023-04-01T14:33:29.754Z,2.22
2023-04-01T14:36:48.473Z,1.73
2023-04-01T14:40:02.912Z,1.52
2023-04-01T14:43:13.667Z,2.20
2023-04-01T14:46:17.998Z,1.02
2023-04-01T14:49:02.646Z,1.90
2023-04-01T14:51:38.827Z,0.60
2023-04-01T14:54:14.765Z,0.40
2023-04-01T14:56:46.695Z,0.50
2023-04-01T14:59:30.897Z,2.70
2023-04-01T15:02:17.452Z,2.22
2023-04-01T15:05:11.816Z,0.55
2023-04-01T15:08:24.933Z,0.68
2023-04-01T15:11:28.287Z,1.17
2023-04-01T15:17:10.641Z,1.38
2023-04-01T15:19:59.814Z,0.90
2023-04-01T15:23:03.488Z,1.73
2023-04-01T15:25:50.831Z,1.45
2023-04-01T15:28:32.190Z,0.68
2023-04-01T15:31:07.379Z,0.73
2023-04-01T15:34:08.967Z,0.10
2023-04-01T15:36:49.335Z,0.13
2023-04-01T15:39:26.911Z,0.10
2023-04-01T15:42:18.992Z,0.10
2023-04-01T15:45:04.875Z,0.10
2023-04-01T15:51:30.694Z,0.10
2023-04-01T15:54:30.610Z,0.15
2023-04-01T15:57:20.702Z,0.10
2023-04-01T16:00:14.019Z,0.20
2023-04-01T16:02:52.372Z,0.43
2023-04-01T16:05:55.175Z,0.45
2023-04-01T16:08:48.190Z,0.20
2023-04-01T16:11:28.751Z,0.20
2023-04-01T16:14:14.044Z,0.20
2023-04-01T16:17:03.817Z,0.15
2023-04-01T16:19:49.295Z,0.10
2023-04-01T16:22:26.359Z,0.20
2023-04-01T16:25:21.637Z,1.30
2023-04-01T16:28:01.521Z,0.20
2023-04-01T16:30:41.403Z,0.30
2023-04-01T16:33:23.385Z,0.40
2023-04-01T16:36:02.456Z,0.43
2023-04-01T16:38:42.151Z,1.00
2023-04-01T16:41:21.622Z,0.70
2023-04-01T16:43:56.852Z,1.35
2023-04-01T16:46:36.565Z,0.95
2023-04-01T16:49:34.847Z,1.23
2023-04-01T16:52:18.703Z,2.55
2023-04-01T16:54:58.122Z,2.63
2023-04-01T16:57:38.045Z,1.98
2023-04-01T17:00:25.306Z,6.60
2023-04-01T17:03:07.204Z,10.60
2023-04-01T17:05:49.008Z,9.80
2023-04-01T17:08:38.098Z,7.30
2023-04-01T17:11:18.086Z,5.63
2023-04-01T17:14:04.312Z,2.45
2023-04-01T17:17:19.790Z,5.30
2023-04-01T17:20:02.430Z,1.52
2023-04-01T17:22:41.914Z,2.00
2023-04-01T17:25:41.993Z,7.68
2023-04-01T17:28:30.322Z,2.67
2023-04-01T17:31:10.440Z,4.68
2023-04-01T17:34:01.911Z,4.15
2023-04-01T17:36:48.480Z,0.50
2023-04-01T17:39:49.042Z,2.83
2023-04-01T17:42:24.421Z,1.73
2023-04-01T17:45:02.210Z,4.20
2023-04-01T17:48:00.863Z,5.20
2023-04-01T17:50:50.773Z,1.63
2023-04-01T17:53:33.694Z,1.50
2023-04-01T17:58:49.610Z,0.57
2023-04-01T18:01:33.163Z,0.65
2023-04-01T18:04:26.730Z,0.30
2023-04-01T18:07:46.998Z,0.70
2023-04-01T18:10:28.115Z,0.50
2023-04-01T18:13:35.551Z,0.60
2023-04-01T18:16:26.131Z,1.00
2023-04-01T18:19:07.367Z,3.42
2023-04-01T18:21:49.329Z,1.13
2023-04-01T18:24:27.295Z,0.20
2023-04-01T18:27:07.279Z,0.30
2023-04-01T18:29:46.871Z,0.40
2023-04-01T18:32:28.938Z,0.20
2023-04-01T18:35:15.561Z,0.17
2023-04-01T18:37:55.476Z,0.22
2023-04-01T18:40:37.100Z,0.20
2023-04-01T18:43:22.818Z,0.30
2023-04-01T18:45:59.745Z,0.20
2023-04-01T18:51:20.238Z,0.60
2023-04-01T18:53:58.136Z,0.38
2023-04-01T18:56:33.254Z,1.40
2023-04-01T18:59:11.486Z,1.10
2023-04-01T19:01:50.165Z,1.88
2023-04-01T19:04:32.265Z,1.77
2023-04-01T19:07:20.085Z,1.37
2023-04-01T19:09:52.792Z,1.17
2023-04-01T19:15:34.354Z,2.70
2023-04-01T19:18:40.930Z,1.80
2023-04-01T19:21:18.897Z,2.00
2023-04-01T19:24:38.480Z,0.65
2023-04-01T19:27:22.110Z,2.00
2023-04-01T19:30:11.073Z,0.10
2023-04-01T19:32:55.127Z,0.00
2023-04-01T19:35:37.949Z,0.00
2023-04-01T19:38:16.615Z,0.00
2023-04-01T19:40:55.973Z,0.00
2023-04-01T19:43:51.063Z,0.10
2023-04-01T19:46:30.787Z,0.00
2023-04-01T19:49:37.389Z,8.35
2023-04-01T19:52:15.833Z,0.20
2023-04-01T19:54:52.744Z,0.10
2023-04-01T19:57:37.720Z,0.00
2023-04-01T20:00:19.155Z,0.10
2023-04-01T20:03:08.527Z,0.10
2023-04-01T20:05:56.372Z,0.10
2023-04-01T20:08:36.912Z,0.20
2023-04-01T20:11:22.036Z,0.20
2023-04-01T20:14:11.166Z,0.10
2023-04-01T20:17:21.929Z,0.20
2023-04-01T20:20:02.042Z,0.52
2023-04-01T20:23:09.390Z,0.30
2023-04-01T20:25:46.573Z,0.20
2023-04-01T20:28:24.558Z,0.20
2023-04-01T20:31:29.286Z,0.10
2023-04-01T20:34:46.591Z,0.10
2023-04-01T20:37:40.327Z,0.20
2023-04-01T20:40:37.320Z,0.20
2023-04-01T20:43:43.747Z,0.10
2023-04-01T20:46:23.169Z,0.10
2023-04-01T20:49:36.488Z,0.10
2023-04-01T20:52:35.193Z,0.10
2023-04-01T20:55:40.058Z,0.30
2023-04-01T20:58:22.213Z,0.10
2023-04-01T21:01:07.182Z,0.63
2023-04-01T21:03:54.604Z,0.20
2023-04-01T21:06:47.029Z,0.30
2023-04-01T21:09:44.247Z,0.30
2023-04-01T21:12:37.231Z,0.20
2023-04-01T21:15:21.861Z,1.05
2023-04-01T21:18:14.148Z,1.25
2023-04-01T21:21:09.024Z,0.52
2023-04-01T21:24:27.188Z,0.68
2023-04-01T21:27:11.054Z,0.22
2023-04-01T21:29:56.016Z,0.20
2023-04-01T21:32:49.118Z,0.28
2023-04-01T21:35:32.478Z,0.30
2023-04-01T21:38:30.378Z,0.30
2023-04-01T21:41:38.077Z,0.68
2023-04-01T21:44:46.014Z,0.30
2023-04-01T21:52:14.036Z,0.40
2023-04-01T21:55:53.613Z,1.60
2023-04-01T21:58:58.177Z,0.40
2023-04-01T22:02:06.261Z,0.30
2023-04-01T22:04:59.910Z,0.40
2023-04-01T22:07:40.160Z,0.77
2023-04-01T22:10:24.557Z,0.40
2023-04-01T22:13:00.631Z,0.30
2023-04-01T22:15:47.723Z,0.40
2023-04-01T22:18:24.516Z,0.28
2023-04-01T22:21:06.409Z,1.58
2023-04-01T22:23:47.059Z,0.30
2023-04-01T22:26:26.725Z,0.50
2023-04-01T22:29:06.910Z,0.57
2023-04-01T22:31:45.791Z,0.20
2023-04-01T22:34:22.610Z,0.85
2023-04-01T22:37:00.905Z,1.02
2023-04-01T22:39:56.966Z,0.90
2023-04-01T22:42:44.906Z,2.00
2023-04-01T22:46:29.282Z,3.20
2023-04-01T22:49:05.915Z,2.10
2023-04-01T22:51:47.065Z,2.95
2023-04-01T22:54:25.434Z,2.00
2023-04-01T22:57:02.603Z,2.05
2023-04-01T22:59:42.148Z,2.35
2023-04-01T23:02:19.558Z,1.83
2023-04-01T23:05:00.230Z,1.70
2023-04-01T23:07:50.301Z,0.50
2023-04-01T23:10:28.934Z,0.98
2023-04-01T23:13:03.924Z,0.85
2023-04-01T23:15:33.897Z,2.13
2023-04-01T23:18:24.846Z,1.80
2023-04-01T23:21:12.514Z,1.90
2023-04-01T23:23:59.408Z,2.28
2023-04-01T23:26:38.820Z,1.50
2023-04-01T23:29:16.918Z,2.63
2023-04-01T23:31:48.208Z,2.08
2023-04-01T23:34:28.612Z,0.80
2023-04-01T23:37:03.314Z,1.00
2023-04-01T23:39:38.196Z,0.85
2023-04-01T23:42:10.703Z,1.20
2023-04-01T23:44:42.509Z,1.10
2023-04-01T23:47:18.794Z,0.50
2023-04-01T23:49:52.104Z,0.75
2023-04-01T23:52:26.749Z,0.60
2023-04-01T23:55:00.963Z,0.68
2023-04-01T23:57:34.734Z,0.40
